createdAt,value
2019-04-03T00:00:14.800Z,58.65
2019-04-03T00:02:43.443Z,58.65
2019-04-03T00:05:12.154Z,58.49
2019-04-03T00:07:41.292Z,58.54
2019-04-03T00:10:10.508Z,58.76
2019-04-03T00:12:41.016Z,58.67
2019-04-03T00:15:09.374Z,58.89
2019-04-03T00:17:37.890Z,59.00
2019-04-03T00:20:07.921Z,59.01
2019-04-03T00:22:37.768Z,59.17
2019-04-03T00:25:07.453Z,59.10
2019-04-03T00:27:36.025Z,59.15
2019-04-03T00:30:07.051Z,59.29
2019-04-03T00:32:35.757Z,59.42
2019-04-03T00:35:07.001Z,59.15
2019-04-03T00:37:35.555Z,59.44
2019-04-03T00:40:09.158Z,59.50
2019-04-03T00:42:37.645Z,59.42
2019-04-03T00:45:07.258Z,59.85
2019-04-03T00:47:36.387Z,59.91
2019-04-03T00:50:06.717Z,60.59
2019-04-03T00:52:36.986Z,60.73
2019-04-03T00:55:06.636Z,61.81
2019-04-03T00:57:35.109Z,61.73
2019-04-03T01:00:05.374Z,61.82
2019-04-03T01:02:33.901Z,61.98
2019-04-03T01:05:02.675Z,62.42
2019-04-03T01:07:31.157Z,62.46
2019-04-03T01:09:59.998Z,62.83
2019-04-03T01:12:30.393Z,63.35
2019-04-03T01:15:01.087Z,63.01
2019-04-03T01:17:30.352Z,63.19
2019-04-03T01:19:58.808Z,63.30
2019-04-03T01:22:27.362Z,63.76
2019-04-03T01:24:55.871Z,64.41
2019-04-03T01:27:24.360Z,64.36
2019-04-03T01:29:52.899Z,64.00
2019-04-03T01:32:21.376Z,63.75
2019-04-03T01:34:51.594Z,64.20
2019-04-03T01:37:20.053Z,64.50
2019-04-03T01:39:51.417Z,64.05
2019-04-03T01:42:22.347Z,64.15
2019-04-03T01:44:50.102Z,64.04
2019-04-03T01:47:18.801Z,64.13
2019-04-03T01:49:50.614Z,64.33
2019-04-03T01:52:19.094Z,64.11
2019-04-03T01:54:47.581Z,64.42
2019-04-03T01:57:16.089Z,64.71
2019-04-03T01:59:44.539Z,64.97
2019-04-03T02:02:14.536Z,65.27
2019-04-03T02:04:43.088Z,65.69
2019-04-03T02:07:14.101Z,65.51
2019-04-03T02:09:44.642Z,65.85
2019-04-03T02:12:13.472Z,65.77
2019-04-03T02:14:42.075Z,66.15
2019-04-03T02:17:12.480Z,66.32
2019-04-03T02:19:40.986Z,66.79
2019-04-03T02:22:12.456Z,67.06
2019-04-03T02:24:41.094Z,67.29
2019-04-03T02:27:09.567Z,67.32
2019-04-03T02:29:40.424Z,67.91
2019-04-03T02:32:08.360Z,68.13
2019-04-03T02:34:36.989Z,68.13
2019-04-03T02:37:08.738Z,68.28
2019-04-03T02:39:37.327Z,68.42
2019-04-03T02:42:09.850Z,68.50
2019-04-03T02:44:40.326Z,68.39
2019-04-03T02:47:08.883Z,68.45
2019-04-03T02:49:39.458Z,68.23
2019-04-03T02:52:07.947Z,68.36
2019-04-03T02:54:39.489Z,68.82
2019-04-03T02:57:11.461Z,68.84
2019-04-03T02:59:39.960Z,69.12
2019-04-03T03:02:11.424Z,69.35
2019-04-03T03:04:39.050Z,69.53
2019-04-03T03:07:07.822Z,69.60
2019-04-03T03:09:37.589Z,69.55
2019-04-03T03:12:06.654Z,69.76
2019-04-03T03:14:39.385Z,69.86
2019-04-03T03:17:08.016Z,70.20
2019-04-03T03:19:37.601Z,70.15
2019-04-03T03:22:08.119Z,70.36
2019-04-03T03:24:37.016Z,70.36
2019-04-03T03:27:08.093Z,70.04
2019-04-03T03:29:36.109Z,69.64
2019-04-03T03:32:15.776Z,69.92
2019-04-03T03:34:51.020Z,69.95
2019-04-03T03:37:14.593Z,70.23
2019-04-03T03:39:44.645Z,70.53
2019-04-03T03:42:15.417Z,70.83
2019-04-03T03:44:46.059Z,70.52
2019-04-03T03:47:15.564Z,70.11
2019-04-03T03:49:48.666Z,70.10
2019-04-03T03:52:19.032Z,69.71
2019-04-03T03:54:51.074Z,69.67
2019-04-03T03:57:20.182Z,69.85
2019-04-03T03:59:52.487Z,70.02
2019-04-03T04:02:21.632Z,69.72
2019-04-03T04:04:52.596Z,69.97
2019-04-03T04:07:20.783Z,69.93
2019-04-03T04:09:51.757Z,69.90
2019-04-03T04:12:21.051Z,69.97
2019-04-03T04:14:49.895Z,69.90
2019-04-03T04:17:19.054Z,69.68
2019-04-03T04:19:47.724Z,69.53
2019-04-03T04:22:18.193Z,69.48
2019-04-03T04:24:47.163Z,69.22
2019-04-03T04:27:19.630Z,69.04
2019-04-03T04:29:48.532Z,69.10
2019-04-03T04:32:17.101Z,69.05
2019-04-03T04:34:50.033Z,69.18
2019-04-03T04:37:19.026Z,68.89
2019-04-03T04:39:47.994Z,68.95
2019-04-03T04:42:16.601Z,68.99
2019-04-03T04:44:45.103Z,69.11
2019-04-03T04:47:15.112Z,68.97
2019-04-03T04:49:43.796Z,68.90
2019-04-03T04:52:12.290Z,68.87
2019-04-03T04:54:42.926Z,68.88
2019-04-03T04:57:11.350Z,68.88
2019-04-03T04:59:40.080Z,68.98
2019-04-03T05:02:10.389Z,69.19
2019-04-03T05:04:39.186Z,69.27
2019-04-03T05:07:08.273Z,69.13
2019-04-03T05:09:36.780Z,69.11
2019-04-03T05:12:05.386Z,69.24
2019-04-03T05:14:33.941Z,69.09
2019-04-03T05:17:02.581Z,69.02
2019-04-03T05:19:31.419Z,68.76
2019-04-03T05:22:02.248Z,68.79
2019-04-03T05:25:18.973Z,68.87
2019-04-03T05:27:47.522Z,68.69
2019-04-03T05:30:30.049Z,68.98
2019-04-03T05:32:59.263Z,69.05
2019-04-03T05:35:27.755Z,69.04
2019-04-03T05:37:56.288Z,68.94
2019-04-03T05:40:26.204Z,69.04
2019-04-03T05:42:55.633Z,69.27
2019-04-03T05:45:27.032Z,69.05
2019-04-03T05:47:55.531Z,69.30
2019-04-03T05:50:25.729Z,69.17
2019-04-03T05:52:54.437Z,69.43
2019-04-03T05:55:23.013Z,69.03
2019-04-03T05:58:02.712Z,69.29
2019-04-03T06:00:31.223Z,69.30
2019-04-03T06:02:59.706Z,69.66
2019-04-03T06:05:28.190Z,69.91
2019-04-03T06:07:58.490Z,69.70
2019-04-03T06:10:31.600Z,69.48
2019-04-03T06:12:59.544Z,69.48
2019-04-03T06:15:28.362Z,69.43
2019-04-03T06:17:56.828Z,69.75
2019-04-03T06:20:25.388Z,69.66
2019-04-03T06:22:54.114Z,70.11
2019-04-03T06:25:23.015Z,70.11
2019-04-03T06:27:51.663Z,70.09
2019-04-03T06:30:20.426Z,69.90
2019-04-03T06:32:49.016Z,70.04
2019-04-03T06:35:17.639Z,70.22
2019-04-03T06:37:46.090Z,70.15
2019-04-03T06:40:14.822Z,70.20
2019-04-03T06:42:44.962Z,70.52
2019-04-03T06:45:15.604Z,70.57
2019-04-03T06:47:43.886Z,70.64
2019-04-03T06:50:13.497Z,70.99
2019-04-03T06:52:42.476Z,71.12
2019-04-03T06:55:11.106Z,71.18
2019-04-03T06:57:40.036Z,71.41
2019-04-03T07:00:09.139Z,71.64
2019-04-03T07:02:37.805Z,72.20
2019-04-03T07:05:10.803Z,72.66
2019-04-03T07:07:39.521Z,73.10
2019-04-03T07:10:09.469Z,73.24
2019-04-03T07:12:38.235Z,72.96
2019-04-03T07:15:07.818Z,72.87
2019-04-03T07:17:36.451Z,72.92
2019-04-03T07:20:13.603Z,73.29
2019-04-03T07:22:36.489Z,73.01
2019-04-03T07:25:07.325Z,72.68
2019-04-03T07:27:41.642Z,72.23
2019-04-03T07:30:09.293Z,72.15
2019-04-03T07:32:37.931Z,72.21
2019-04-03T07:35:10.132Z,72.25
2019-04-03T07:37:37.296Z,72.27
2019-04-03T07:40:09.047Z,71.93
2019-04-03T07:42:37.887Z,71.72
2019-04-03T07:45:08.001Z,71.71
2019-04-03T07:47:36.670Z,71.39
2019-04-03T07:50:10.397Z,71.63
2019-04-03T07:52:38.185Z,71.39
2019-04-03T07:55:17.250Z,71.34
2019-04-03T07:57:45.725Z,71.12
2019-04-03T08:00:14.744Z,71.03
2019-04-03T08:02:47.948Z,70.80
2019-04-03T08:05:14.214Z,70.55
2019-04-03T08:07:42.753Z,70.50
2019-04-03T08:10:12.067Z,70.43
2019-04-03T08:12:40.618Z,70.38
2019-04-03T08:15:09.391Z,70.40
2019-04-03T08:17:38.522Z,70.11
2019-04-03T08:20:10.300Z,69.95
2019-04-03T08:22:42.086Z,69.64
2019-04-03T08:25:12.536Z,69.45
2019-04-03T08:27:41.330Z,69.50
2019-04-03T08:30:10.519Z,69.30
2019-04-03T08:32:40.507Z,69.25
2019-04-03T08:35:20.804Z,69.19
2019-04-03T08:37:41.960Z,69.48
2019-04-03T08:40:12.442Z,69.47
2019-04-03T08:42:40.920Z,69.33
2019-04-03T08:45:12.678Z,68.98
2019-04-03T08:47:46.145Z,69.30
2019-04-03T08:50:12.707Z,69.43
2019-04-03T08:52:41.320Z,69.56
2019-04-03T08:55:14.045Z,70.05
2019-04-03T08:57:45.647Z,70.77
2019-04-03T09:00:14.115Z,70.98
2019-04-03T09:02:43.879Z,71.08
2019-04-03T09:05:15.004Z,71.28
2019-04-03T09:07:43.611Z,71.76
2019-04-03T09:10:13.794Z,72.04
2019-04-03T09:12:42.303Z,73.69
2019-04-03T09:15:12.786Z,73.92
2019-04-03T09:17:42.889Z,74.56
2019-04-03T09:20:13.509Z,74.33
2019-04-03T09:22:41.910Z,74.54
2019-04-03T09:25:13.967Z,75.08
2019-04-03T09:27:42.591Z,75.66
2019-04-03T09:30:15.763Z,76.13
2019-04-03T09:32:46.377Z,76.53
2019-04-03T09:35:15.528Z,76.66
2019-04-03T09:37:46.372Z,76.72
2019-04-03T09:40:17.273Z,76.91
2019-04-03T09:42:45.712Z,78.25
2019-04-03T09:45:15.101Z,78.20
2019-04-03T09:47:46.336Z,78.25
2019-04-03T09:50:16.613Z,78.76
2019-04-03T09:52:49.437Z,79.01
2019-04-03T09:55:15.512Z,79.52
2019-04-03T09:57:44.002Z,80.02
2019-04-03T10:00:15.872Z,80.00
2019-04-03T10:02:48.886Z,80.46
2019-04-03T10:05:18.481Z,80.90
2019-04-03T10:07:47.117Z,81.35
2019-04-03T10:10:17.153Z,81.50
2019-04-03T10:12:48.005Z,81.22
2019-04-03T10:18:47.574Z,81.92
2019-04-03T10:21:16.145Z,81.63
2019-04-03T10:23:44.692Z,81.72
2019-04-03T10:26:13.741Z,81.97
2019-04-03T10:28:43.243Z,82.10
2019-04-03T10:31:12.716Z,82.07
2019-04-03T10:33:41.261Z,82.29
2019-04-03T10:36:11.424Z,81.92
2019-04-03T10:38:42.689Z,82.94
2019-04-03T10:41:11.702Z,82.36
2019-04-03T10:43:42.262Z,82.87
2019-04-03T10:46:10.909Z,83.44
2019-04-03T10:48:39.353Z,82.71
2019-04-03T10:51:09.288Z,83.27
2019-04-03T10:53:40.925Z,83.49
2019-04-03T10:56:09.449Z,83.42
2019-04-03T10:58:40.246Z,83.84
2019-04-03T11:01:08.409Z,83.41
2019-04-03T11:03:38.433Z,84.29
2019-04-03T11:06:07.238Z,83.72
2019-04-03T11:08:36.008Z,84.40
2019-04-03T11:11:05.128Z,84.29
2019-04-03T11:13:34.297Z,84.49
2019-04-03T11:16:03.489Z,85.17
2019-04-03T11:18:32.458Z,85.19
2019-04-03T11:21:01.109Z,85.17
2019-04-03T11:23:37.815Z,84.30
2019-04-03T11:25:59.875Z,84.46
2019-04-03T11:28:28.471Z,84.65
2019-04-03T11:31:00.841Z,84.54
2019-04-03T11:33:27.478Z,84.61
2019-04-03T11:35:56.403Z,84.69
2019-04-03T11:38:29.240Z,85.02
2019-04-03T11:40:57.049Z,84.39
2019-04-03T11:43:25.534Z,84.75
2019-04-03T11:45:54.139Z,85.49
2019-04-03T11:48:22.676Z,85.24
2019-04-03T11:50:51.187Z,85.61
2019-04-03T11:53:19.625Z,85.82
2019-04-03T11:55:48.721Z,85.64
2019-04-03T11:58:22.736Z,85.70
2019-04-03T12:00:52.672Z,85.46
2019-04-03T12:03:21.164Z,85.32
2019-04-03T12:05:50.375Z,84.79
2019-04-03T12:08:18.854Z,84.42
2019-04-03T12:10:47.422Z,84.57
2019-04-03T12:13:15.913Z,84.47
2019-04-03T12:15:44.862Z,84.10
2019-04-03T12:18:13.362Z,84.43
2019-04-03T12:20:44.766Z,84.11
2019-04-03T12:23:12.343Z,84.43
2019-04-03T12:29:12.364Z,84.19
2019-04-03T12:31:41.080Z,84.23
2019-04-03T12:34:09.862Z,84.23
2019-04-03T12:36:38.362Z,84.09
2019-04-03T12:39:09.865Z,84.05
2019-04-03T12:41:38.423Z,83.84
2019-04-03T12:44:06.904Z,84.01
2019-04-03T12:46:40.837Z,83.61
2019-04-03T12:49:08.855Z,84.40
2019-04-03T12:51:37.682Z,85.09
2019-04-03T12:54:06.548Z,84.76
2019-04-03T12:56:38.217Z,84.35
2019-04-03T12:59:09.006Z,83.99
2019-04-03T13:01:36.991Z,83.81
2019-04-03T13:04:05.743Z,83.88
2019-04-03T13:06:34.710Z,84.51
2019-04-03T13:09:05.272Z,84.44
2019-04-03T13:11:36.485Z,83.97
2019-04-03T13:14:08.361Z,83.70
2019-04-03T13:16:37.793Z,83.81
2019-04-03T13:19:06.604Z,83.87
2019-04-03T13:21:39.794Z,83.89
2019-04-03T13:24:12.409Z,84.32
2019-04-03T13:26:39.198Z,84.39
2019-04-03T13:29:08.997Z,84.63
2019-04-03T13:31:37.978Z,84.17
2019-04-03T13:34:10.177Z,84.83
2019-04-03T13:36:37.109Z,84.93
2019-04-03T13:39:07.612Z,84.85
2019-04-03T13:41:36.080Z,85.23
2019-04-03T13:44:04.699Z,84.91
2019-04-03T13:46:36.451Z,84.83
2019-04-03T13:49:05.219Z,84.48
2019-04-03T13:51:34.074Z,84.28
2019-04-03T13:54:08.586Z,83.99
2019-04-03T13:56:37.909Z,83.92
2019-04-03T13:59:09.154Z,83.94
2019-04-03T14:01:40.021Z,84.46
2019-04-03T14:04:07.900Z,84.17
2019-04-03T14:06:37.129Z,84.10
2019-04-03T14:09:07.454Z,84.19
2019-04-03T14:11:35.981Z,84.61
2019-04-03T14:14:06.730Z,84.21
2019-04-03T14:16:35.592Z,84.95
2019-04-03T14:19:04.869Z,84.28
2019-04-03T14:21:35.704Z,85.21
2019-04-03T14:24:08.274Z,85.29
2019-04-03T14:26:35.774Z,84.54
2019-04-03T14:29:07.391Z,84.41
2019-04-03T14:31:37.370Z,84.43
2019-04-03T14:34:05.148Z,84.58
2019-04-03T14:36:33.688Z,84.44
2019-04-03T14:39:03.513Z,83.94
2019-04-03T14:41:34.996Z,83.91
2019-04-03T14:44:03.492Z,84.09
2019-04-03T14:46:32.433Z,83.95
2019-04-03T14:49:03.095Z,84.24
2019-04-03T14:51:34.919Z,84.35
2019-04-03T14:54:11.191Z,84.02
2019-04-03T14:56:35.920Z,83.74
2019-04-03T14:59:13.708Z,83.75
2019-04-03T15:01:35.214Z,83.95
2019-04-03T15:04:04.134Z,84.38
2019-04-03T15:06:32.673Z,84.12
2019-04-03T15:09:01.368Z,84.42
2019-04-03T15:11:32.833Z,84.17
2019-04-03T15:14:03.612Z,84.28
2019-04-03T15:16:33.598Z,83.92
2019-04-03T15:19:02.633Z,83.89
2019-04-03T15:21:31.802Z,83.41
2019-04-03T15:24:00.415Z,83.24
2019-04-03T15:26:31.973Z,82.79
2019-04-03T15:29:02.275Z,82.88
2019-04-03T15:31:31.127Z,82.20
2019-04-03T15:33:59.628Z,81.42
2019-04-03T15:36:28.167Z,81.16
2019-04-03T15:38:58.799Z,81.78
2019-04-03T15:41:28.661Z,81.43
2019-04-03T15:43:57.210Z,81.18
2019-04-03T15:46:27.139Z,81.06
2019-04-03T15:49:03.625Z,81.12
2019-04-03T15:51:32.146Z,80.48
2019-04-03T15:54:03.812Z,80.49
2019-04-03T15:56:32.936Z,81.05
2019-04-03T15:59:02.965Z,80.08
2019-04-03T16:01:32.235Z,80.56
2019-04-03T16:04:03.543Z,80.45
2019-04-03T16:06:35.933Z,80.09
2019-04-03T16:09:07.973Z,80.45
2019-04-03T16:11:41.587Z,80.70
2019-04-03T16:14:10.279Z,80.93
2019-04-03T16:16:39.141Z,80.43
2019-04-03T16:19:08.370Z,80.67
2019-04-03T16:21:38.304Z,80.40
2019-04-03T16:24:11.383Z,79.86
2019-04-03T16:26:37.114Z,78.36
2019-04-03T16:29:06.890Z,78.97
2019-04-03T16:31:36.129Z,78.60
2019-04-03T16:34:08.609Z,77.96
2019-04-03T16:36:35.138Z,78.24
2019-04-03T16:39:05.389Z,77.96
2019-04-03T16:41:33.846Z,77.48
2019-04-03T16:44:02.396Z,77.15
2019-04-03T16:46:30.941Z,76.57
2019-04-03T16:49:00.009Z,77.62
2019-04-03T16:51:29.202Z,77.86
2019-04-03T16:54:02.013Z,77.78
2019-04-03T16:56:33.871Z,77.85
2019-04-03T16:59:08.123Z,77.77
2019-04-03T17:01:40.833Z,77.55
2019-04-03T17:04:10.424Z,76.84
2019-04-03T17:06:39.514Z,76.87
2019-04-03T17:09:10.663Z,77.20
2019-04-03T17:11:39.289Z,77.39
2019-04-03T17:14:09.397Z,77.48
2019-04-03T17:16:40.667Z,77.23
2019-04-03T17:19:09.189Z,77.51
2019-04-03T17:21:39.021Z,77.55
2019-04-03T17:24:08.560Z,77.19
2019-04-03T17:26:48.330Z,77.18
2019-04-03T17:29:08.146Z,77.01
2019-04-03T17:31:36.711Z,77.32
2019-04-03T17:34:07.524Z,77.48
2019-04-03T17:36:37.116Z,77.65
2019-04-03T17:39:08.217Z,77.82
2019-04-03T17:41:40.818Z,77.67
2019-04-03T17:44:09.298Z,77.92
2019-04-03T17:46:40.188Z,78.03
2019-04-03T17:49:08.927Z,78.17
2019-04-03T17:51:37.420Z,78.21
2019-04-03T17:54:42.393Z,78.23
2019-04-03T17:57:13.443Z,77.87
2019-04-03T17:59:41.133Z,77.94
2019-04-03T18:02:09.689Z,77.93
2019-04-03T18:04:38.167Z,77.94
2019-04-03T18:07:06.645Z,77.91
2019-04-03T18:09:37.705Z,78.17
2019-04-03T18:12:06.261Z,78.24
2019-04-03T18:14:36.282Z,78.39
2019-04-03T18:17:04.840Z,78.23
2019-04-03T18:19:37.744Z,78.14
2019-04-03T18:22:04.123Z,78.29
2019-04-03T18:24:32.612Z,77.83
2019-04-03T18:27:02.561Z,77.95
2019-04-03T18:29:45.492Z,78.02
2019-04-03T18:32:15.395Z,77.47
2019-04-03T18:34:51.153Z,77.29
2019-04-03T18:37:19.152Z,77.19
2019-04-03T18:39:51.974Z,77.47
2019-04-03T18:42:25.665Z,77.76
2019-04-03T18:44:54.077Z,77.90
2019-04-03T18:47:22.634Z,78.05
2019-04-03T18:49:55.315Z,77.57
2019-04-03T18:52:28.253Z,77.60
2019-04-03T18:54:58.341Z,77.35
2019-04-03T18:57:26.822Z,77.48
2019-04-03T18:59:56.469Z,77.26
2019-04-03T19:02:27.650Z,77.54
2019-04-03T19:05:01.862Z,77.77
2019-04-03T19:07:26.378Z,77.87
2019-04-03T19:10:06.321Z,77.67
2019-04-03T19:12:35.547Z,77.32
2019-04-03T19:14:58.304Z,77.65
2019-04-03T19:17:27.458Z,77.54
2019-04-03T19:20:09.796Z,77.48
2019-04-03T19:22:26.357Z,77.71
2019-04-03T19:24:54.832Z,77.85
2019-04-03T19:27:24.836Z,77.85
2019-04-03T19:29:56.717Z,77.82
2019-04-03T19:32:25.260Z,78.39
2019-04-03T19:34:58.250Z,78.12
2019-04-03T19:37:26.796Z,77.42
2019-04-03T19:39:55.432Z,77.28
2019-04-03T19:42:23.911Z,77.11
2019-04-03T19:44:52.451Z,77.21
2019-04-03T19:47:22.806Z,77.45
2019-04-03T19:49:52.232Z,77.45
2019-04-03T19:52:20.725Z,77.56
2019-04-03T19:54:49.644Z,76.97
2019-04-03T19:57:22.423Z,76.53
2019-04-03T19:59:50.887Z,76.30
2019-04-03T20:02:22.114Z,76.14
2019-04-03T20:04:51.284Z,75.92
2019-04-03T20:07:40.986Z,75.74
2019-04-03T20:10:11.215Z,75.16
2019-04-03T20:12:39.844Z,75.31
2019-04-03T20:15:09.154Z,75.66
2019-04-03T20:17:37.635Z,75.38
2019-04-03T20:20:07.951Z,75.73
2019-04-03T20:22:38.211Z,75.79
2019-04-03T20:25:07.211Z,75.91
2019-04-03T20:27:35.760Z,76.36
2019-04-03T20:30:06.587Z,76.08
2019-04-03T20:32:35.062Z,76.27
2019-04-03T20:35:04.191Z,76.52
2019-04-03T20:37:32.678Z,76.73
2019-04-03T20:40:05.806Z,76.58
2019-04-03T20:42:34.447Z,76.56
2019-04-03T20:45:03.075Z,77.05
2019-04-03T20:47:31.555Z,77.25
2019-04-03T20:50:00.041Z,77.97
2019-04-03T20:52:30.039Z,78.40
2019-04-03T20:54:58.522Z,78.72
2019-04-03T20:57:26.990Z,78.54
2019-04-03T21:00:01.800Z,78.46
2019-04-03T21:02:25.835Z,78.52
2019-04-03T21:04:57.073Z,78.50
2019-04-03T21:07:25.523Z,78.60
2019-04-03T21:09:53.995Z,78.55
2019-04-03T21:12:22.452Z,78.64
2019-04-03T21:14:50.946Z,78.63
2019-04-03T21:17:19.495Z,78.74
2019-04-03T21:19:47.977Z,78.96
2019-04-03T21:22:16.594Z,78.89
2019-04-03T21:24:45.078Z,78.85
2019-04-03T21:27:15.170Z,78.85
2019-04-03T21:29:43.715Z,78.95
2019-04-03T21:32:13.826Z,78.86
2019-04-03T21:34:42.937Z,79.10
2019-04-03T21:37:13.850Z,79.03
2019-04-03T21:39:43.549Z,78.71
2019-04-03T21:42:12.065Z,78.80
2019-04-03T21:44:40.537Z,79.04
2019-04-03T21:47:11.467Z,79.29
2019-04-03T21:49:39.206Z,79.64
2019-04-03T21:52:08.947Z,79.33
2019-04-03T21:54:37.375Z,79.56
2019-04-03T21:57:06.814Z,79.69
2019-04-03T21:59:35.385Z,80.12
2019-04-03T22:02:04.386Z,79.95
2019-04-03T22:04:35.681Z,80.10
2019-04-03T22:07:04.277Z,80.23
2019-04-03T22:09:32.747Z,80.47
2019-04-03T22:12:01.263Z,80.21
2019-04-03T22:14:29.749Z,80.00
2019-04-03T22:16:58.505Z,80.05
2019-04-03T22:19:27.746Z,80.30
2019-04-03T22:21:58.339Z,80.23
2019-04-03T22:24:26.915Z,80.43
2019-04-03T22:26:55.381Z,80.62
2019-04-03T22:29:23.857Z,80.67
2019-04-03T22:31:54.439Z,80.58
2019-04-03T22:34:22.523Z,80.50
2019-04-03T22:36:50.983Z,80.54
2019-04-03T22:39:19.481Z,80.53
2019-04-03T22:41:48.007Z,80.50
2019-04-03T22:44:17.115Z,80.29
2019-04-03T22:46:46.338Z,80.20
2019-04-03T22:49:14.822Z,80.16
2019-04-03T22:51:43.416Z,80.17
2019-04-03T22:54:12.695Z,79.88
2019-04-03T22:56:41.806Z,79.75
2019-04-03T22:59:10.362Z,79.48
2019-04-03T23:01:39.041Z,79.54
2019-04-03T23:04:07.523Z,79.54
2019-04-03T23:06:36.414Z,79.39
2019-04-03T23:09:08.962Z,79.29
2019-04-03T23:11:37.520Z,79.59
2019-04-03T23:14:07.535Z,79.87
2019-04-03T23:16:36.151Z,79.89
2019-04-03T23:19:04.668Z,80.07
2019-04-03T23:21:33.146Z,79.80
2019-04-03T23:24:01.612Z,79.47
2019-04-03T23:26:32.064Z,79.28
2019-04-03T23:29:00.285Z,79.60
2019-04-03T23:31:28.759Z,79.54
2019-04-03T23:33:59.089Z,79.12
2019-04-03T23:36:27.559Z,78.96
2019-04-03T23:38:56.739Z,78.96
2019-04-03T23:41:25.655Z,79.13
2019-04-03T23:43:55.696Z,80.49
2019-04-03T23:46:24.215Z,80.81
2019-04-03T23:48:52.732Z,80.71
2019-04-03T23:51:23.422Z,81.00
2019-04-03T23:53:51.392Z,81.89
2019-04-03T23:56:19.862Z,82.17
2019-04-03T23:58:48.353Z,82.26
